Flight Track Log - Related Links

Times and Time Zones

All times are in EDT time to prevent confusion due to time zone crossing. See the EXS432 flight status page for this flight to view local times or setup timezone preferences in your user account.

Time Position Orientation Groundspeed Altitude Reporting Facility
EDT Latitude Longitude Course Direction KTS MPH feet Rate Location/Type
Sun 02:37:32 PM 48.1939 17.5262 302° West  Level Estimated
Sun 02:38:32 PM 48.2340 17.4314 302° West  Level Estimated
Sun 02:39:32 PM 48.2917 17.2946 301° West  Level Estimated
Sun 02:40:32 PM 48.3492 17.1575 301° West  Level Estimated
Sun 02:41:32 PM 48.4065 17.0200 301° West  Level Estimated
Sun 02:42:32 PM 48.4637 16.8823 301° West  Level Estimated
Sun 02:43:32 PM 48.5207 16.7442 301° West  Level Estimated
Sun 02:44:32 PM 48.5775 16.6059 301° West  Level Estimated
Sun 02:45:32 PM 48.6342 16.4672 301° West  Level Estimated
Sun 02:46:32 PM 48.6907 16.3282 301° West  Level Estimated
Sun 02:47:32 PM 48.7470 16.1889 301° West  Level Estimated
Sun 02:48:32 PM 48.8032 16.0493 300° West  Level Estimated
Sun 02:49:32 PM 48.8592 15.9094 300° West  Level Estimated
Sun 02:50:32 PM 48.8979 15.8121 300° West  Level Estimated
Sun 02:51:32 PM 48.9366 15.7147 300° West  Level Estimated
Sun 02:52:32 PM 48.9752 15.6171 300° West  Level Estimated
Sun 02:53:32 PM 49.0137 15.5194 300° West  Level Estimated
Sun 02:54:32 PM 49.0690 15.3782 300° West  Level Estimated
Sun 02:55:32 PM 49.1242 15.2368 300° West  Level Estimated
Sun 02:56:32 PM 49.1792 15.0951 300° West  Level Estimated
Sun 02:57:32 PM 49.2341 14.9530 300° West  Level Estimated
Sun 02:58:32 PM 49.2887 14.8107 299° West  Level Estimated
Sun 02:59:32 PM 49.3432 14.6680 299° West  Level Estimated
Sun 03:00:32 PM 49.3975 14.5250 299° West  Level Estimated
Sun 03:01:32 PM 49.4516 14.3817 299° West  Level Estimated
Sun 03:02:32 PM 49.5056 14.2380 299° West  Level Estimated
Sun 03:03:32 PM 49.5594 14.0941 299° West  Level Estimated
Sun 03:04:32 PM 49.6130 13.9498 299° West  Level Estimated
Sun 03:05:32 PM 49.6664 13.8052 299° West  Level Estimated
Sun 03:06:32 PM 49.7196 13.6603 298° West  Level Estimated
Sun 03:07:32 PM 49.7727 13.5151 298° West  Level Estimated
Sun 03:08:32 PM 49.8094 13.4142 298° West  Level Estimated
Sun 03:09:32 PM 49.8460 13.3131 298° West  Level Estimated
Sun 03:10:32 PM 49.8825 13.2118 298° West  Level Estimated
Sun 03:11:32 PM 49.9190 13.1104 298° West  Level Estimated
Sun 03:12:32 PM 49.9553 13.0088 298° West  Level Estimated
Sun 03:13:32 PM 50.0075 12.8622 298° West  Level Estimated
Sun 03:14:32 PM 50.0596 12.7152 298° West  Level Estimated
Sun 03:15:32 PM 50.1115 12.5680 297° West  Level Estimated
Sun 03:16:32 PM 50.1631 12.4204 297° West  Level Estimated
Sun 03:17:32 PM 50.2146 12.2725 297° West  Level Estimated
Sun 03:18:32 PM 50.2659 12.1242 297° West  Level Estimated
Sun 03:19:32 PM 50.3170 11.9757 297° West  Level Estimated
Sun 03:20:32 PM 50.3680 11.8268 297° West  Level Estimated
Sun 03:21:32 PM 50.4187 11.6776 297° West  Level Estimated
Sun 03:22:32 PM 50.4692 11.5281 297° West  Level Estimated
Sun 03:23:32 PM 50.5196 11.3783 296° West  Level Estimated
Sun 03:24:32 PM 50.5697 11.2281 296° West  Level Estimated
Sun 03:25:32 PM 50.6197 11.0777 296° West  Level Estimated
Sun 03:26:32 PM 50.6543 10.9731 296° West  Level Estimated
Sun 03:27:32 PM 50.6887 10.8683 296° West  Level Estimated
Sun 03:28:32 PM 50.7231 10.7634 296° West  Level Estimated
Sun 03:29:32 PM 50.7574 10.6584 296° West  Level Estimated
Sun 03:30:32 PM 50.7915 10.5532 296° West  Level Estimated
Sun 03:31:32 PM 50.8256 10.4478 295° West  Level Estimated
Sun 03:32:32 PM 50.8596 10.3423 295° West  Level Estimated
Sun 03:33:32 PM 50.8935 10.2366 295° West  Level Estimated
Sun 03:34:32 PM 50.9273 10.1308 295° West  Level Estimated
Sun 03:35:32 PM 50.9610 10.0248 295° West  Level Estimated
Sun 03:36:32 PM 50.9946 9.9187 295° West  Level Estimated
Sun 03:37:32 PM 51.0281 9.8124 295° West  Level Estimated
Sun 03:38:32 PM 51.0615 9.7060 295° West  Level Estimated
Sun 03:39:32 PM 51.0948 9.5994 295° West  Level Estimated
Sun 03:40:32 PM 51.1281 9.4926 295° West  Level Estimated
Sun 03:41:32 PM 51.1612 9.3857 294° West  Level Estimated
Sun 03:42:32 PM 51.2087 9.2314 294° West  Level Estimated
Sun 03:43:32 PM 51.2561 9.0767 294° West  Level Estimated
Sun 03:44:32 PM 51.3032 8.9218 294° West  Level Estimated
Sun 03:45:32 PM 51.3502 8.7665 294° West  Level Estimated
Sun 03:46:32 PM 51.3969 8.6109 294° West  Level Estimated
Sun 03:47:32 PM 51.4435 8.4550 293° West  Level Estimated
Sun 03:48:32 PM 51.4898 8.2987 293° West  Level Estimated
Sun 03:49:32 PM 51.5359 8.1422 293° West  Level Estimated
Sun 03:50:32 PM 51.5818 7.9853 293° West  Level Estimated
Sun 03:51:32 PM 51.6275 7.8281 293° West  Level Estimated
Sun 03:52:32 PM 51.6591 7.7189 293° West  Level Estimated
Sun 03:53:32 PM 51.6906 7.6095 292° West  Level Estimated
Sun 03:54:32 PM 51.7220 7.4999 292° West  Level Estimated
Sun 03:55:32 PM 51.7533 7.3902 292° West  Level Estimated
Sun 03:56:32 PM 51.7845 7.2803 292° West  Level Estimated
Sun 03:57:32 PM 51.8292 7.1217 292° West  Level Estimated
Sun 03:58:32 PM 51.8738 6.9628 292° West  Level Estimated
Sun 03:59:32 PM 51.9181 6.8036 291° West  Level Estimated
Sun 04:00:32 PM 51.9622 6.6441 291° West  Level Estimated
Sun 04:01:32 PM 52.0061 6.4842 291° West  Level Estimated
Sun 04:02:32 PM 52.0498 6.3240 291° West  Level Estimated
Sun 04:03:32 PM 52.0933 6.1636 290° West  Level Estimated
Sun 04:04:43 PM 52.8973 2.2678 287° West 430 495 34,000  Level FlightAware ADS-B
Sun 04:05:55 PM 52.9379 2.0419 287° West 430 495 34,000  Level FlightAware ADS-B
Sun 04:06:34 PM 52.9599 1.9190 287° West 430 495 34,000  Level FlightAware ADS-B
Sun 04:07:04 PM 52.9769 1.8239 287° West 428 493 34,000  Level FlightAware ADS-B
Sun 04:07:37 PM 52.9941 1.7272 287° West 428 493 34,000  Level FlightAware ADS-B
Sun 04:08:10 PM 53.0125 1.6239 286° West 428 493 34,000  Level FlightAware ADS-B
Sun 04:08:43 PM 53.0313 1.5168 286° West 429 494 34,000  Level FlightAware ADS-B
Sun 04:09:19 PM 53.0511 1.4031 286° West 429 494 34,000  Level FlightAware ADS-B
Sun 04:09:50 PM 53.0686 1.3029 286° West 430 495 34,000  Level FlightAware ADS-B
Sun 04:10:20 PM 53.0856 1.2052 286° West 430 495 34,000  Level FlightAware ADS-B
Sun 04:10:46 PM 53.0997 1.1229 286° West 429 494 34,000  Level FlightAware ADS-B
Sun 04:11:17 PM 53.1161 1.0262 286° West 430 495 34,000  Level FlightAware ADS-B
Sun 04:11:49 PM 53.1340 0.9224 286° West 431 496 34,000  Level FlightAware ADS-B
Sun 04:12:19 PM 53.1505 0.8270 286° West 432 497 34,000  Level FlightAware ADS-B
Sun 04:12:50 PM 53.1673 0.7304 286° West 432 497 34,000  Level FlightAware ADS-B
Sun 04:13:24 PM 53.1862 0.6222 286° West 433 498 34,000  Level FlightAware ADS-B
Sun 04:13:54 PM 53.1949 0.5723 286° West 433 498 34,000 -545 Level FlightAware ADS-B
Sun 04:14:08 PM 53.2090 0.4920 286° West 435 501 33,600 -2,348 Descending FlightAware ADS-B
Sun 04:14:40 PM 53.2293 0.3764 286° West 431 496 32,200 -2,438 Descending FlightAware ADS-B
Sun 04:15:12 PM 53.2466 0.2780 287° West 424 488 31,000 -2,323 Descending FlightAware ADS-B
Sun 04:15:42 PM 53.2636 0.1833 287° West 417 480 29,800 -2,300 Descending FlightAware ADS-B
Sun 04:16:12 PM 53.2802 0.0918 287° West 410 472 28,700 -1,688 Descending FlightAware ADS-B
Sun 04:16:46 PM 53.2983 -0.0079 289° West 396 456 28,000 -1,024 Descending FlightAware ADS-B
Sun 04:16:53 PM 53.3024 -0.0276 295° West 394 453 28,000 -158 Level FlightAware ADS-B
Sun 04:17:24 PM 53.3266 -0.1136 295° West 390 449 27,900 -1,161 Descending FlightAware ADS-B
Sun 04:17:55 PM 53.3508 -0.1992 295° West 385 443 26,800 -2,032 Descending FlightAware ADS-B
Sun 04:18:26 PM 53.3734 -0.2793 296° West 379 436 25,800 -1,946 Descending FlightAware ADS-B
Sun 04:19:09 PM 53.4055 -0.3916 296° West 376 433 24,400 -2,026 Descending FlightAware ADS-B
Sun 04:19:43 PM 53.4310 -0.4807 295° West 367 422 23,200 -2,000 Descending FlightAware ADS-B
Sun 04:20:57 PM 53.4830 -0.6659 303° West 357 411 20,800 -1,946 Descending FlightAware ADS-B
Sun 04:28:32 PM 53.9276 -1.8247 122° Southeast  Level Estimated
Sun 04:29:32 PM 53.8697 -1.6705 123° Southeast  Level Estimated
Sun 04:30:32 PM 53.8114 -1.5168 303° West  Level Estimated
Sun 04:31:32 PM 53.8697 -1.6705 123° Southeast  Level Estimated
Sun 04:32:32 PM 53.8114 -1.5168 303° West  Level Estimated
Sun 04:33:32 PM 53.8697 -1.6705 123° Southeast  Level Estimated
Sun 04:34:32 PM 53.8114 -1.5168 303° West  Level Estimated
Sun 04:35:32 PM 53.8697 -1.6705 123° Southeast  Level Estimated
Sun 04:36:32 PM 53.8114 -1.5168 303° West  Level Estimated
Sun 04:37:32 PM 53.8697 -1.6705 123° Southeast  Level Estimated
Sun 04:38:32 PM 53.8114 -1.5168 303° West  Level Estimated
Sun 04:39:32 PM 53.8697 -1.6705 303° West  Level Estimated

Login

Don't have an account? Register now (free) for customized features, flight alerts, and more!